sensor_id;sensor_type;location;lat;lon;timestamp;P1;durP1;ratioP1;P2;durP2;ratioP2
60436;SDS011;46289;51.992;4.498;2023-05-10T00:00:54;64.70;;;25.60;;
60436;SDS011;46289;51.992;4.498;2023-05-10T00:03:01;69.03;;;28.13;;
60436;SDS011;46289;51.992;4.498;2023-05-10T00:05:07;70.47;;;28.13;;
60436;SDS011;46289;51.992;4.498;2023-05-10T00:07:12;76.32;;;31.10;;
60436;SDS011;46289;51.992;4.498;2023-05-10T00:09:19;80.00;;;29.70;;
60436;SDS011;46289;51.992;4.498;2023-05-10T00:11:26;73.57;;;30.00;;
60436;SDS011;46289;51.992;4.498;2023-05-10T00:13:31;71.43;;;29.73;;
60436;SDS011;46289;51.992;4.498;2023-05-10T00:15:36;83.00;;;32.30;;
60436;SDS011;46289;51.992;4.498;2023-05-10T00:17:41;78.03;;;30.35;;
60436;SDS011;46289;51.992;4.498;2023-05-10T00:19:49;71.25;;;32.03;;
60436;SDS011;46289;51.992;4.498;2023-05-10T00:21:54;72.30;;;30.63;;
60436;SDS011;46289;51.992;4.498;2023-05-10T00:23:59;73.70;;;29.98;;
60436;SDS011;46289;51.992;4.498;2023-05-10T00:26:04;74.00;;;32.70;;
60436;SDS011;46289;51.992;4.498;2023-05-10T00:28:08;74.15;;;32.08;;
60436;SDS011;46289;51.992;4.498;2023-05-10T00:30:13;74.80;;;31.60;;
60436;SDS011;46289;51.992;4.498;2023-05-10T00:32:18;77.60;;;34.70;;
60436;SDS011;46289;51.992;4.498;2023-05-10T00:34:24;72.20;;;31.30;;
60436;SDS011;46289;51.992;4.498;2023-05-10T00:36:32;76.00;;;31.13;;
60436;SDS011;46289;51.992;4.498;2023-05-10T00:38:37;86.35;;;33.65;;
60436;SDS011;46289;51.992;4.498;2023-05-10T00:40:42;80.78;;;29.55;;
60436;SDS011;46289;51.992;4.498;2023-05-10T00:42:47;79.00;;;29.70;;
60436;SDS011;46289;51.992;4.498;2023-05-10T00:44:52;74.05;;;29.98;;
60436;SDS011;46289;51.992;4.498;2023-05-10T00:46:57;80.15;;;31.45;;
60436;SDS011;46289;51.992;4.498;2023-05-10T00:49:03;84.82;;;31.35;;
60436;SDS011;46289;51.992;4.498;2023-05-10T00:51:08;78.65;;;30.25;;
60436;SDS011;46289;51.992;4.498;2023-05-10T00:53:16;86.07;;;30.10;;
60436;SDS011;46289;51.992;4.498;2023-05-10T00:55:22;73.53;;;28.48;;
60436;SDS011;46289;51.992;4.498;2023-05-10T00:57:27;75.13;;;26.70;;
60436;SDS011;46289;51.992;4.498;2023-05-10T00:59:32;84.35;;;30.35;;
60436;SDS011;46289;51.992;4.498;2023-05-10T01:01:37;86.80;;;31.60;;
60436;SDS011;46289;51.992;4.498;2023-05-10T01:03:42;90.75;;;32.80;;
60436;SDS011;46289;51.992;4.498;2023-05-10T01:05:48;79.53;;;28.60;;
60436;SDS011;46289;51.992;4.498;2023-05-10T01:07:54;80.93;;;30.10;;
60436;SDS011;46289;51.992;4.498;2023-05-10T01:10:02;80.47;;;29.13;;
60436;SDS011;46289;51.992;4.498;2023-05-10T01:12:07;91.78;;;30.60;;
60436;SDS011;46289;51.992;4.498;2023-05-10T01:14:12;93.22;;;31.00;;
60436;SDS011;46289;51.992;4.498;2023-05-10T01:16:17;85.20;;;28.15;;
60436;SDS011;46289;51.992;4.498;2023-05-10T01:18:22;82.38;;;28.88;;
60436;SDS011;46289;51.992;4.498;2023-05-10T01:20:32;100.82;;;32.85;;
60436;SDS011;46289;51.992;4.498;2023-05-10T01:25:42;97.45;;;32.75;;
60436;SDS011;46289;51.992;4.498;2023-05-10T01:28:25;101.90;;;30.80;;
60436;SDS011;46289;51.992;4.498;2023-05-10T01:31:03;94.57;;;31.10;;
60436;SDS011;46289;51.992;4.498;2023-05-10T01:33:26;108.75;;;34.03;;
60436;SDS011;46289;51.992;4.498;2023-05-10T01:35:36;98.57;;;30.52;;
60436;SDS011;46289;51.992;4.498;2023-05-10T01:37:45;100.05;;;32.17;;
60436;SDS011;46289;51.992;4.498;2023-05-10T01:39:54;86.97;;;31.80;;
60436;SDS011;46289;51.992;4.498;2023-05-10T01:42:06;97.10;;;30.70;;
60436;SDS011;46289;51.992;4.498;2023-05-10T01:44:16;90.10;;;34.47;;
60436;SDS011;46289;51.992;4.498;2023-05-10T01:46:37;88.43;;;29.90;;
60436;SDS011;46289;51.992;4.498;2023-05-10T01:48:47;96.90;;;30.63;;
60436;SDS011;46289;51.992;4.498;2023-05-10T01:50:55;88.70;;;30.50;;
60436;SDS011;46289;51.992;4.498;2023-05-10T01:53:01;91.70;;;31.52;;
60436;SDS011;46289;51.992;4.498;2023-05-10T01:55:11;88.47;;;33.95;;
60436;SDS011;46289;51.992;4.498;2023-05-10T01:57:19;92.90;;;31.60;;
60436;SDS011;46289;51.992;4.498;2023-05-10T01:59:28;79.90;;;28.10;;
60436;SDS011;46289;51.992;4.498;2023-05-10T02:01:38;91.20;;;30.27;;
60436;SDS011;46289;51.992;4.498;2023-05-10T02:03:47;94.20;;;32.40;;
60436;SDS011;46289;51.992;4.498;2023-05-10T02:05:54;90.95;;;30.08;;
60436;SDS011;46289;51.992;4.498;2023-05-10T02:08:00;81.15;;;29.20;;
60436;SDS011;46289;51.992;4.498;2023-05-10T02:10:08;73.60;;;26.13;;
60436;SDS011;46289;51.992;4.498;2023-05-10T02:12:16;80.18;;;27.65;;
60436;SDS011;46289;51.992;4.498;2023-05-10T02:14:22;78.10;;;27.20;;
60436;SDS011;46289;51.992;4.498;2023-05-10T02:16:30;73.03;;;27.17;;
60436;SDS011;46289;51.992;4.498;2023-05-10T02:18:37;69.18;;;25.60;;
60436;SDS011;46289;51.992;4.498;2023-05-10T02:20:47;63.63;;;23.55;;
60436;SDS011;46289;51.992;4.498;2023-05-10T02:22:54;59.83;;;24.80;;
60436;SDS011;46289;51.992;4.498;2023-05-10T02:25:02;70.70;;;26.15;;
60436;SDS011;46289;51.992;4.498;2023-05-10T02:27:08;61.92;;;26.38;;
60436;SDS011;46289;51.992;4.498;2023-05-10T02:29:14;67.32;;;27.17;;
60436;SDS011;46289;51.992;4.498;2023-05-10T02:31:22;68.97;;;27.90;;
60436;SDS011;46289;51.992;4.498;2023-05-10T02:33:31;58.95;;;25.30;;
60436;SDS011;46289;51.992;4.498;2023-05-10T02:35:36;65.45;;;26.23;;
60436;SDS011;46289;51.992;4.498;2023-05-10T02:37:45;65.55;;;27.15;;
60436;SDS011;46289;51.992;4.498;2023-05-10T02:39:53;72.75;;;28.33;;
60436;SDS011;46289;51.992;4.498;2023-05-10T02:42:01;74.85;;;28.42;;
60436;SDS011;46289;51.992;4.498;2023-05-10T02:44:06;77.25;;;28.85;;
60436;SDS011;46289;51.992;4.498;2023-05-10T02:46:13;85.50;;;29.90;;
60436;SDS011;46289;51.992;4.498;2023-05-10T02:48:18;75.57;;;28.33;;
60436;SDS011;46289;51.992;4.498;2023-05-10T02:50:27;73.53;;;28.73;;
60436;SDS011;46289;51.992;4.498;2023-05-10T02:52:38;84.53;;;30.27;;
60436;SDS011;46289;51.992;4.498;2023-05-10T02:54:48;77.13;;;27.48;;
60436;SDS011;46289;51.992;4.498;2023-05-10T02:56:57;81.72;;;31.13;;
60436;SDS011;46289;51.992;4.498;2023-05-10T02:59:04;68.22;;;25.55;;
60436;SDS011;46289;51.992;4.498;2023-05-10T03:01:09;87.55;;;30.95;;
60436;SDS011;46289;51.992;4.498;2023-05-10T03:03:14;84.10;;;31.40;;
60436;SDS011;46289;51.992;4.498;2023-05-10T03:05:19;69.88;;;28.25;;
60436;SDS011;46289;51.992;4.498;2023-05-10T03:07:24;87.47;;;28.70;;
60436;SDS011;46289;51.992;4.498;2023-05-10T03:09:29;70.07;;;30.23;;
60436;SDS011;46289;51.992;4.498;2023-05-10T03:11:43;79.35;;;29.02;;
60436;SDS011;46289;51.992;4.498;2023-05-10T03:13:56;83.57;;;30.13;;
60436;SDS011;46289;51.992;4.498;2023-05-10T03:16:14;71.57;;;28.90;;
60436;SDS011;46289;51.992;4.498;2023-05-10T03:18:21;70.45;;;29.35;;
60436;SDS011;46289;51.992;4.498;2023-05-10T03:20:29;79.32;;;31.65;;
60436;SDS011;46289;51.992;4.498;2023-05-10T03:22:39;76.10;;;30.52;;
60436;SDS011;46289;51.992;4.498;2023-05-10T03:24:48;71.80;;;26.40;;
60436;SDS011;46289;51.992;4.498;2023-05-10T03:26:56;62.55;;;26.25;;
60436;SDS011;46289;51.992;4.498;2023-05-10T03:29:05;63.70;;;27.15;;
60436;SDS011;46289;51.992;4.498;2023-05-10T03:31:11;62.17;;;26.45;;
60436;SDS011;46289;51.992;4.498;2023-05-10T03:33:17;60.47;;;26.60;;
60436;SDS011;46289;51.992;4.498;2023-05-10T03:35:22;72.25;;;28.40;;
60436;SDS011;46289;51.992;4.498;2023-05-10T03:37:28;71.68;;;30.52;;
60436;SDS011;46289;51.992;4.498;2023-05-10T03:39:33;68.28;;;30.80;;
60436;SDS011;46289;51.992;4.498;2023-05-10T03:41:38;65.70;;;28.77;;
60436;SDS011;46289;51.992;4.498;2023-05-10T03:43:46;84.03;;;33.35;;
60436;SDS011;46289;51.992;4.498;2023-05-10T03:45:54;83.88;;;34.40;;
60436;SDS011;46289;51.992;4.498;2023-05-10T03:47:59;78.38;;;34.50;;
60436;SDS011;46289;51.992;4.498;2023-05-10T03:50:07;80.57;;;30.65;;
60436;SDS011;46289;51.992;4.498;2023-05-10T03:52:12;76.63;;;31.98;;
60436;SDS011;46289;51.992;4.498;2023-05-10T03:54:18;72.15;;;32.10;;
60436;SDS011;46289;51.992;4.498;2023-05-10T03:56:24;78.28;;;34.10;;
60436;SDS011;46289;51.992;4.498;2023-05-10T03:58:29;91.60;;;37.53;;
60436;SDS011;46289;51.992;4.498;2023-05-10T04:00:37;77.55;;;32.08;;
60436;SDS011;46289;51.992;4.498;2023-05-10T04:02:45;87.13;;;35.72;;
60436;SDS011;46289;51.992;4.498;2023-05-10T04:04:50;77.15;;;32.75;;
60436;SDS011;46289;51.992;4.498;2023-05-10T04:06:55;79.55;;;31.60;;
60436;SDS011;46289;51.992;4.498;2023-05-10T04:09:00;78.63;;;32.63;;
60436;SDS011;46289;51.992;4.498;2023-05-10T04:11:05;75.55;;;33.03;;
60436;SDS011;46289;51.992;4.498;2023-05-10T04:13:11;77.57;;;29.80;;
60436;SDS011;46289;51.992;4.498;2023-05-10T04:15:16;68.30;;;29.35;;
60436;SDS011;46289;51.992;4.498;2023-05-10T04:17:25;78.40;;;30.00;;
60436;SDS011;46289;51.992;4.498;2023-05-10T04:19:31;78.00;;;28.92;;
60436;SDS011;46289;51.992;4.498;2023-05-10T04:21:36;77.18;;;28.65;;
60436;SDS011;46289;51.992;4.498;2023-05-10T04:23:41;72.25;;;27.88;;
60436;SDS011;46289;51.992;4.498;2023-05-10T04:25:46;74.00;;;27.88;;
60436;SDS011;46289;51.992;4.498;2023-05-10T04:27:52;79.13;;;27.33;;
60436;SDS011;46289;51.992;4.498;2023-05-10T04:29:57;72.07;;;27.17;;
60436;SDS011;46289;51.992;4.498;2023-05-10T04:32:02;62.92;;;24.63;;
60436;SDS011;46289;51.992;4.498;2023-05-10T04:34:10;70.90;;;26.63;;
60436;SDS011;46289;51.992;4.498;2023-05-10T04:36:15;71.43;;;26.25;;
60436;SDS011;46289;51.992;4.498;2023-05-10T04:38:20;68.20;;;24.20;;
60436;SDS011;46289;51.992;4.498;2023-05-10T04:40:26;76.32;;;25.25;;
60436;SDS011;46289;51.992;4.498;2023-05-10T04:42:31;75.38;;;25.88;;
60436;SDS011;46289;51.992;4.498;2023-05-10T04:44:35;74.07;;;28.08;;
60436;SDS011;46289;51.992;4.498;2023-05-10T04:46:41;63.85;;;21.42;;
60436;SDS011;46289;51.992;4.498;2023-05-10T04:48:46;71.32;;;23.23;;
60436;SDS011;46289;51.992;4.498;2023-05-10T04:50:54;67.15;;;22.45;;
60436;SDS011;46289;51.992;4.498;2023-05-10T04:53:01;63.05;;;22.20;;
60436;SDS011;46289;51.992;4.498;2023-05-10T04:55:06;61.33;;;21.65;;
60436;SDS011;46289;51.992;4.498;2023-05-10T04:57:12;63.92;;;21.40;;
60436;SDS011;46289;51.992;4.498;2023-05-10T04:59:17;61.97;;;19.55;;
60436;SDS011;46289;51.992;4.498;2023-05-10T05:01:22;55.92;;;18.10;;
60436;SDS011;46289;51.992;4.498;2023-05-10T05:03:27;60.38;;;19.83;;
60436;SDS011;46289;51.992;4.498;2023-05-10T05:05:32;47.30;;;17.63;;
60436;SDS011;46289;51.992;4.498;2023-05-10T05:07:40;55.03;;;18.65;;
60436;SDS011;46289;51.992;4.498;2023-05-10T05:09:45;45.67;;;15.38;;
60436;SDS011;46289;51.992;4.498;2023-05-10T05:11:50;36.15;;;13.68;;
60436;SDS011;46289;51.992;4.498;2023-05-10T05:13:55;32.25;;;12.05;;
60436;SDS011;46289;51.992;4.498;2023-05-10T05:16:03;23.17;;;9.88;;
60436;SDS011;46289;51.992;4.498;2023-05-10T05:18:09;22.60;;;8.63;;
60436;SDS011;46289;51.992;4.498;2023-05-10T05:20:14;17.60;;;7.45;;
60436;SDS011;46289;51.992;4.498;2023-05-10T05:22:20;16.63;;;7.80;;
60436;SDS011;46289;51.992;4.498;2023-05-10T05:24:32;17.95;;;7.35;;
60436;SDS011;46289;51.992;4.498;2023-05-10T05:26:40;16.15;;;7.35;;
60436;SDS011;46289;51.992;4.498;2023-05-10T05:28:45;13.60;;;5.97;;
60436;SDS011;46289;51.992;4.498;2023-05-10T05:30:50;16.27;;;6.93;;
60436;SDS011;46289;51.992;4.498;2023-05-10T05:32:55;17.83;;;7.20;;
60436;SDS011;46289;51.992;4.498;2023-05-10T05:35:01;16.83;;;7.35;;
60436;SDS011;46289;51.992;4.498;2023-05-10T05:37:05;15.63;;;6.72;;
60436;SDS011;46289;51.992;4.498;2023-05-10T05:39:10;14.77;;;6.85;;
60436;SDS011;46289;51.992;4.498;2023-05-10T05:41:18;14.48;;;6.20;;
60436;SDS011;46289;51.992;4.498;2023-05-10T05:43:24;17.13;;;7.22;;
60436;SDS011;46289;51.992;4.498;2023-05-10T05:45:29;14.35;;;6.68;;
60436;SDS011;46289;51.992;4.498;2023-05-10T05:47:34;14.25;;;6.53;;
60436;SDS011;46289;51.992;4.498;2023-05-10T05:49:39;13.05;;;6.43;;
60436;SDS011;46289;51.992;4.498;2023-05-10T05:51:43;12.68;;;6.22;;
60436;SDS011;46289;51.992;4.498;2023-05-10T05:53:50;18.48;;;6.63;;
60436;SDS011;46289;51.992;4.498;2023-05-10T05:55:56;17.05;;;7.47;;
60436;SDS011;46289;51.992;4.498;2023-05-10T05:58:04;18.05;;;8.30;;
60436;SDS011;46289;51.992;4.498;2023-05-10T06:00:09;15.52;;;8.10;;
60436;SDS011;46289;51.992;4.498;2023-05-10T06:02:14;15.15;;;7.40;;
60436;SDS011;46289;51.992;4.498;2023-05-10T06:04:19;17.80;;;7.30;;
60436;SDS011;46289;51.992;4.498;2023-05-10T06:06:24;16.73;;;8.80;;
60436;SDS011;46289;51.992;4.498;2023-05-10T06:08:29;17.80;;;7.97;;
60436;SDS011;46289;51.992;4.498;2023-05-10T06:10:35;19.30;;;7.68;;
60436;SDS011;46289;51.992;4.498;2023-05-10T06:12:40;20.13;;;9.05;;
60436;SDS011;46289;51.992;4.498;2023-05-10T06:14:48;21.20;;;9.90;;
60436;SDS011;46289;51.992;4.498;2023-05-10T06:16:54;20.83;;;9.50;;
60436;SDS011;46289;51.992;4.498;2023-05-10T06:19:01;21.60;;;10.27;;
60436;SDS011;46289;51.992;4.498;2023-05-10T06:21:06;23.20;;;11.23;;
60436;SDS011;46289;51.992;4.498;2023-05-10T06:23:11;22.00;;;10.70;;
60436;SDS011;46289;51.992;4.498;2023-05-10T06:25:16;20.77;;;9.45;;
60436;SDS011;46289;51.992;4.498;2023-05-10T06:27:21;21.35;;;9.32;;
60436;SDS011;46289;51.992;4.498;2023-05-10T06:29:27;19.30;;;9.40;;
60436;SDS011;46289;51.992;4.498;2023-05-10T06:31:34;19.58;;;9.48;;
60436;SDS011;46289;51.992;4.498;2023-05-10T06:33:39;19.33;;;9.23;;
60436;SDS011;46289;51.992;4.498;2023-05-10T06:35:44;18.73;;;8.80;;
60436;SDS011;46289;51.992;4.498;2023-05-10T06:37:50;16.30;;;7.57;;
60436;SDS011;46289;51.992;4.498;2023-05-10T06:39:56;18.33;;;8.60;;
60436;SDS011;46289;51.992;4.498;2023-05-10T06:42:01;16.42;;;7.13;;
60436;SDS011;46289;51.992;4.498;2023-05-10T06:44:06;14.55;;;6.78;;
60436;SDS011;46289;51.992;4.498;2023-05-10T06:46:11;15.55;;;7.63;;
60436;SDS011;46289;51.992;4.498;2023-05-10T06:48:18;14.35;;;6.55;;
60436;SDS011;46289;51.992;4.498;2023-05-10T06:50:26;17.30;;;8.25;;
60436;SDS011;46289;51.992;4.498;2023-05-10T06:52:31;21.70;;;8.30;;
60436;SDS011;46289;51.992;4.498;2023-05-10T06:54:36;16.05;;;8.38;;
60436;SDS011;46289;51.992;4.498;2023-05-10T06:56:41;17.45;;;8.52;;
60436;SDS011;46289;51.992;4.498;2023-05-10T06:58:46;15.63;;;7.63;;
60436;SDS011;46289;51.992;4.498;2023-05-10T07:00:51;14.80;;;7.95;;
60436;SDS011;46289;51.992;4.498;2023-05-10T07:02:57;16.20;;;7.30;;
60436;SDS011;46289;51.992;4.498;2023-05-10T07:05:05;15.75;;;7.85;;
60436;SDS011;46289;51.992;4.498;2023-05-10T07:07:10;16.70;;;7.63;;
60436;SDS011;46289;51.992;4.498;2023-05-10T07:09:15;16.42;;;7.50;;
60436;SDS011;46289;51.992;4.498;2023-05-10T07:11:20;17.15;;;6.70;;
60436;SDS011;46289;51.992;4.498;2023-05-10T07:13:25;16.45;;;7.28;;
60436;SDS011;46289;51.992;4.498;2023-05-10T07:15:30;16.38;;;7.68;;
60436;SDS011;46289;51.992;4.498;2023-05-10T07:17:35;21.33;;;8.48;;
60436;SDS011;46289;51.992;4.498;2023-05-10T07:19:41;17.33;;;8.40;;
60436;SDS011;46289;51.992;4.498;2023-05-10T07:21:48;22.45;;;8.95;;
60436;SDS011;46289;51.992;4.498;2023-05-10T07:23:56;22.10;;;8.48;;
60436;SDS011;46289;51.992;4.498;2023-05-10T07:26:01;20.08;;;8.68;;
60436;SDS011;46289;51.992;4.498;2023-05-10T07:28:06;18.52;;;8.43;;
60436;SDS011;46289;51.992;4.498;2023-05-10T07:30:12;17.58;;;7.47;;
60436;SDS011;46289;51.992;4.498;2023-05-10T07:32:17;18.65;;;7.97;;
60436;SDS011;46289;51.992;4.498;2023-05-10T07:34:23;21.13;;;9.30;;
60436;SDS011;46289;51.992;4.498;2023-05-10T07:36:28;19.75;;;8.63;;
60436;SDS011;46289;51.992;4.498;2023-05-10T07:38:38;20.52;;;8.77;;
60436;SDS011;46289;51.992;4.498;2023-05-10T07:40:43;16.67;;;8.10;;
60436;SDS011;46289;51.992;4.498;2023-05-10T07:42:48;26.67;;;7.85;;
60436;SDS011;46289;51.992;4.498;2023-05-10T07:44:54;20.15;;;8.45;;
60436;SDS011;46289;51.992;4.498;2023-05-10T07:46:59;18.30;;;9.30;;
60436;SDS011;46289;51.992;4.498;2023-05-10T07:49:04;21.98;;;9.05;;
60436;SDS011;46289;51.992;4.498;2023-05-10T07:51:09;20.40;;;9.48;;
60436;SDS011;46289;51.992;4.498;2023-05-10T07:53:14;18.23;;;9.13;;
60436;SDS011;46289;51.992;4.498;2023-05-10T07:55:22;14.60;;;8.00;;
60436;SDS011;46289;51.992;4.498;2023-05-10T07:57:27;19.80;;;8.45;;
60436;SDS011;46289;51.992;4.498;2023-05-10T07:59:32;17.85;;;8.13;;
60436;SDS011;46289;51.992;4.498;2023-05-10T08:01:38;17.95;;;7.60;;
60436;SDS011;46289;51.992;4.498;2023-05-10T08:03:43;16.00;;;7.10;;
60436;SDS011;46289;51.992;4.498;2023-05-10T08:05:48;16.67;;;7.75;;
60436;SDS011;46289;51.992;4.498;2023-05-10T08:07:54;19.58;;;8.23;;
60436;SDS011;46289;51.992;4.498;2023-05-10T08:10:01;17.23;;;8.23;;
60436;SDS011;46289;51.992;4.498;2023-05-10T08:12:09;19.48;;;8.35;;
60436;SDS011;46289;51.992;4.498;2023-05-10T08:14:15;16.58;;;7.60;;
60436;SDS011;46289;51.992;4.498;2023-05-10T08:16:20;15.00;;;7.40;;
60436;SDS011;46289;51.992;4.498;2023-05-10T08:18:33;17.23;;;8.60;;
60436;SDS011;46289;51.992;4.498;2023-05-10T08:20:38;16.45;;;8.38;;
60436;SDS011;46289;51.992;4.498;2023-05-10T08:22:43;14.88;;;7.47;;
60436;SDS011;46289;51.992;4.498;2023-05-10T08:24:51;18.65;;;7.97;;
60436;SDS011;46289;51.992;4.498;2023-05-10T08:26:57;14.35;;;7.43;;
60436;SDS011;46289;51.992;4.498;2023-05-10T08:29:04;17.42;;;8.23;;
60436;SDS011;46289;51.992;4.498;2023-05-10T08:31:10;15.55;;;7.10;;
60436;SDS011;46289;51.992;4.498;2023-05-10T08:33:15;14.55;;;7.65;;
60436;SDS011;46289;51.992;4.498;2023-05-10T08:35:20;15.68;;;7.20;;
60436;SDS011;46289;51.992;4.498;2023-05-10T08:37:29;20.48;;;8.73;;
60436;SDS011;46289;51.992;4.498;2023-05-10T08:39:34;15.93;;;7.65;;
60436;SDS011;46289;51.992;4.498;2023-05-10T08:41:39;13.55;;;6.70;;
60436;SDS011;46289;51.992;4.498;2023-05-10T08:43:48;19.70;;;8.63;;
60436;SDS011;46289;51.992;4.498;2023-05-10T08:45:57;17.83;;;7.70;;
60436;SDS011;46289;51.992;4.498;2023-05-10T08:48:05;18.80;;;8.00;;
60436;SDS011;46289;51.992;4.498;2023-05-10T08:50:11;15.60;;;7.82;;
60436;SDS011;46289;51.992;4.498;2023-05-10T08:52:17;15.25;;;7.93;;
60436;SDS011;46289;51.992;4.498;2023-05-10T08:54:23;16.25;;;7.78;;
60436;SDS011;46289;51.992;4.498;2023-05-10T08:56:31;14.35;;;7.03;;
60436;SDS011;46289;51.992;4.498;2023-05-10T08:58:38;13.98;;;6.65;;
60436;SDS011;46289;51.992;4.498;2023-05-10T09:00:43;11.82;;;5.78;;
60436;SDS011;46289;51.992;4.498;2023-05-10T09:02:51;11.98;;;6.10;;
60436;SDS011;46289;51.992;4.498;2023-05-10T09:05:00;15.15;;;6.50;;
60436;SDS011;46289;51.992;4.498;2023-05-10T09:07:06;13.13;;;7.18;;
60436;SDS011;46289;51.992;4.498;2023-05-10T09:09:11;14.77;;;6.63;;
60436;SDS011;46289;51.992;4.498;2023-05-10T09:11:16;12.20;;;5.30;;
60436;SDS011;46289;51.992;4.498;2023-05-10T09:13:26;11.00;;;5.95;;
60436;SDS011;46289;51.992;4.498;2023-05-10T09:15:32;13.38;;;6.03;;
60436;SDS011;46289;51.992;4.498;2023-05-10T09:17:38;12.50;;;6.45;;
60436;SDS011;46289;51.992;4.498;2023-05-10T09:19:47;14.77;;;6.82;;
60436;SDS011;46289;51.992;4.498;2023-05-10T09:21:52;12.80;;;6.28;;
60436;SDS011;46289;51.992;4.498;2023-05-10T09:23:57;13.07;;;6.65;;
60436;SDS011;46289;51.992;4.498;2023-05-10T09:26:07;11.43;;;5.90;;
60436;SDS011;46289;51.992;4.498;2023-05-10T09:28:12;11.60;;;5.80;;
60436;SDS011;46289;51.992;4.498;2023-05-10T09:30:17;12.48;;;6.00;;
60436;SDS011;46289;51.992;4.498;2023-05-10T09:32:38;15.32;;;6.35;;
60436;SDS011;46289;51.992;4.498;2023-05-10T09:34:44;17.00;;;6.78;;
60436;SDS011;46289;51.992;4.498;2023-05-10T09:36:55;15.23;;;7.85;;
60436;SDS011;46289;51.992;4.498;2023-05-10T09:39:02;14.77;;;7.47;;
60436;SDS011;46289;51.992;4.498;2023-05-10T09:41:14;15.73;;;8.02;;
60436;SDS011;46289;51.992;4.498;2023-05-10T09:43:23;19.38;;;8.00;;
60436;SDS011;46289;51.992;4.498;2023-05-10T09:45:32;18.02;;;7.18;;
60436;SDS011;46289;51.992;4.498;2023-05-10T09:47:39;17.55;;;7.57;;
60436;SDS011;46289;51.992;4.498;2023-05-10T09:49:47;18.00;;;7.70;;
60436;SDS011;46289;51.992;4.498;2023-05-10T09:51:59;18.33;;;8.05;;
60436;SDS011;46289;51.992;4.498;2023-05-10T09:54:08;15.48;;;8.18;;
60436;SDS011;46289;51.992;4.498;2023-05-10T09:56:18;15.88;;;7.82;;
60436;SDS011;46289;51.992;4.498;2023-05-10T09:58:41;16.33;;;7.80;;
60436;SDS011;46289;51.992;4.498;2023-05-10T10:00:46;15.73;;;7.22;;
60436;SDS011;46289;51.992;4.498;2023-05-10T10:02:55;14.30;;;7.05;;
60436;SDS011;46289;51.992;4.498;2023-05-10T10:05:05;16.50;;;7.70;;
60436;SDS011;46289;51.992;4.498;2023-05-10T10:07:11;16.30;;;8.18;;
60436;SDS011;46289;51.992;4.498;2023-05-10T10:09:16;16.63;;;7.38;;
60436;SDS011;46289;51.992;4.498;2023-05-10T10:11:21;14.48;;;7.45;;
60436;SDS011;46289;51.992;4.498;2023-05-10T10:13:31;12.07;;;6.55;;
60436;SDS011;46289;51.992;4.498;2023-05-10T10:15:36;12.98;;;5.88;;
60436;SDS011;46289;51.992;4.498;2023-05-10T10:17:42;14.05;;;5.68;;
60436;SDS011;46289;51.992;4.498;2023-05-10T10:19:48;14.73;;;6.28;;
60436;SDS011;46289;51.992;4.498;2023-05-10T10:21:56;12.73;;;6.63;;
60436;SDS011;46289;51.992;4.498;2023-05-10T10:24:01;14.32;;;6.30;;
60436;SDS011;46289;51.992;4.498;2023-05-10T10:26:07;17.08;;;7.28;;
60436;SDS011;46289;51.992;4.498;2023-05-10T10:28:16;16.83;;;7.22;;
60436;SDS011;46289;51.992;4.498;2023-05-10T10:30:31;12.82;;;6.32;;
60436;SDS011;46289;51.992;4.498;2023-05-10T10:32:47;15.52;;;7.55;;
60436;SDS011;46289;51.992;4.498;2023-05-10T10:35:20;18.08;;;8.13;;
60436;SDS011;46289;51.992;4.498;2023-05-10T10:39:51;19.27;;;8.45;;
60436;SDS011;46289;51.992;4.498;2023-05-10T10:41:59;16.40;;;7.80;;
60436;SDS011;46289;51.992;4.498;2023-05-10T10:46:33;15.93;;;7.72;;
60436;SDS011;46289;51.992;4.498;2023-05-10T10:48:39;17.80;;;7.35;;
60436;SDS011;46289;51.992;4.498;2023-05-10T10:50:44;15.02;;;8.40;;
60436;SDS011;46289;51.992;4.498;2023-05-10T10:52:53;17.33;;;8.23;;
60436;SDS011;46289;51.992;4.498;2023-05-10T10:54:58;14.45;;;8.07;;
60436;SDS011;46289;51.992;4.498;2023-05-10T10:57:11;15.05;;;7.72;;
60436;SDS011;46289;51.992;4.498;2023-05-10T10:59:26;13.73;;;7.20;;
60436;SDS011;46289;51.992;4.498;2023-05-10T11:01:32;13.15;;;7.03;;
60436;SDS011;46289;51.992;4.498;2023-05-10T11:03:38;13.88;;;6.90;;
60436;SDS011;46289;51.992;4.498;2023-05-10T11:05:43;14.13;;;7.40;;
60436;SDS011;46289;51.992;4.498;2023-05-10T11:07:54;13.57;;;8.82;;
60436;SDS011;46289;51.992;4.498;2023-05-10T11:10:03;15.68;;;7.38;;
60436;SDS011;46289;51.992;4.498;2023-05-10T11:12:08;14.57;;;8.50;;
60436;SDS011;46289;51.992;4.498;2023-05-10T11:14:13;14.40;;;8.23;;
60436;SDS011;46289;51.992;4.498;2023-05-10T11:16:19;12.18;;;7.38;;
60436;SDS011;46289;51.992;4.498;2023-05-10T11:18:25;15.25;;;8.02;;
60436;SDS011;46289;51.992;4.498;2023-05-10T11:20:38;16.77;;;8.70;;
60436;SDS011;46289;51.992;4.498;2023-05-10T11:22:49;14.30;;;7.97;;
60436;SDS011;46289;51.992;4.498;2023-05-10T11:25:00;13.45;;;7.15;;
60436;SDS011;46289;51.992;4.498;2023-05-10T11:27:05;15.50;;;7.68;;
60436;SDS011;46289;51.992;4.498;2023-05-10T11:29:11;17.83;;;8.13;;
60436;SDS011;46289;51.992;4.498;2023-05-10T11:31:17;12.93;;;6.95;;
60436;SDS011;46289;51.992;4.498;2023-05-10T11:33:23;14.23;;;6.93;;
60436;SDS011;46289;51.992;4.498;2023-05-10T11:35:31;11.15;;;5.50;;
60436;SDS011;46289;51.992;4.498;2023-05-10T11:37:44;11.52;;;5.65;;
60436;SDS011;46289;51.992;4.498;2023-05-10T11:39:54;12.55;;;5.93;;
60436;SDS011;46289;51.992;4.498;2023-05-10T11:42:02;12.60;;;6.53;;
60436;SDS011;46289;51.992;4.498;2023-05-10T11:44:07;13.82;;;7.15;;
60436;SDS011;46289;51.992;4.498;2023-05-10T11:46:13;13.50;;;7.00;;
60436;SDS011;46289;51.992;4.498;2023-05-10T11:48:21;10.43;;;5.50;;
60436;SDS011;46289;51.992;4.498;2023-05-10T11:50:27;11.68;;;6.20;;
60436;SDS011;46289;51.992;4.498;2023-05-10T11:52:35;13.35;;;5.95;;
60436;SDS011;46289;51.992;4.498;2023-05-10T11:54:44;13.75;;;6.35;;
60436;SDS011;46289;51.992;4.498;2023-05-10T11:56:50;16.67;;;7.15;;
60436;SDS011;46289;51.992;4.498;2023-05-10T11:58:57;12.02;;;6.55;;
60436;SDS011;46289;51.992;4.498;2023-05-10T12:01:06;17.05;;;6.45;;
60436;SDS011;46289;51.992;4.498;2023-05-10T12:03:12;17.27;;;7.45;;
60436;SDS011;46289;51.992;4.498;2023-05-10T12:05:17;15.27;;;6.70;;
60436;SDS011;46289;51.992;4.498;2023-05-10T12:07:23;13.32;;;6.10;;
60436;SDS011;46289;51.992;4.498;2023-05-10T12:09:28;13.57;;;6.63;;
60436;SDS011;46289;51.992;4.498;2023-05-10T12:11:44;19.20;;;6.53;;
60436;SDS011;46289;51.992;4.498;2023-05-10T12:13:49;14.70;;;6.63;;
60436;SDS011;46289;51.992;4.498;2023-05-10T12:15:59;15.27;;;6.38;;
60436;SDS011;46289;51.992;4.498;2023-05-10T12:18:04;14.38;;;6.18;;
60436;SDS011;46289;51.992;4.498;2023-05-10T12:20:12;16.70;;;6.22;;
60436;SDS011;46289;51.992;4.498;2023-05-10T12:22:20;16.83;;;8.00;;
60436;SDS011;46289;51.992;4.498;2023-05-10T12:24:25;17.30;;;6.72;;
60436;SDS011;46289;51.992;4.498;2023-05-10T12:26:30;15.45;;;7.22;;
60436;SDS011;46289;51.992;4.498;2023-05-10T12:28:36;13.15;;;6.30;;
60436;SDS011;46289;51.992;4.498;2023-05-10T12:30:42;15.70;;;6.32;;
60436;SDS011;46289;51.992;4.498;2023-05-10T12:32:50;12.63;;;6.28;;
60436;SDS011;46289;51.992;4.498;2023-05-10T12:34:56;14.10;;;6.40;;
60436;SDS011;46289;51.992;4.498;2023-05-10T12:37:02;17.55;;;6.70;;